sensor_id;sensor_type;location;lat;lon;timestamp;P1;durP1;ratioP1;P2;durP2;ratioP2
72379;SDS011;60354;47.798;12.472;2022-11-14T00:01:55;2.60;;;1.80;;
72379;SDS011;60354;47.798;12.472;2022-11-14T00:04:39;2.38;;;1.80;;
72379;SDS011;60354;47.798;12.472;2022-11-14T00:10:07;2.25;;;1.80;;
72379;SDS011;60354;47.798;12.472;2022-11-14T00:12:52;2.30;;;1.67;;
72379;SDS011;60354;47.798;12.472;2022-11-14T00:18:20;2.30;;;1.60;;
72379;SDS011;60354;47.798;12.472;2022-11-14T00:21:04;4.00;;;1.70;;
72379;SDS011;60354;47.798;12.472;2022-11-14T00:23:48;2.10;;;1.60;;
72379;SDS011;60354;47.798;12.472;2022-11-14T00:26:32;2.42;;;1.80;;
72379;SDS011;60354;47.798;12.472;2022-11-14T00:29:16;2.95;;;1.80;;
72379;SDS011;60354;47.798;12.472;2022-11-14T00:34:44;3.85;;;1.70;;
72379;SDS011;60354;47.798;12.472;2022-11-14T00:37:28;3.25;;;1.67;;
72379;SDS011;60354;47.798;12.472;2022-11-14T00:42:57;3.58;;;1.75;;
72379;SDS011;60354;47.798;12.472;2022-11-14T00:45:42;2.63;;;1.85;;
72379;SDS011;60354;47.798;12.472;2022-11-14T00:48:27;2.38;;;1.75;;
72379;SDS011;60354;47.798;12.472;2022-11-14T00:53:55;2.30;;;1.60;;
72379;SDS011;60354;47.798;12.472;2022-11-14T00:56:39;2.80;;;1.90;;
72379;SDS011;60354;47.798;12.472;2022-11-14T00:59:23;3.03;;;1.92;;
72379;SDS011;60354;47.798;12.472;2022-11-14T01:02:07;3.10;;;1.98;;
72379;SDS011;60354;47.798;12.472;2022-11-14T01:07:35;2.92;;;1.80;;
72379;SDS011;60354;47.798;12.472;2022-11-14T01:13:03;2.50;;;1.80;;
72379;SDS011;60354;47.798;12.472;2022-11-14T01:15:48;2.63;;;1.73;;
72379;SDS011;60354;47.798;12.472;2022-11-14T01:18:32;2.45;;;1.77;;
72379;SDS011;60354;47.798;12.472;2022-11-14T01:21:16;3.28;;;2.10;;
72379;SDS011;60354;47.798;12.472;2022-11-14T01:24:00;3.15;;;2.10;;
72379;SDS011;60354;47.798;12.472;2022-11-14T01:26:44;2.40;;;1.80;;
72379;SDS011;60354;47.798;12.472;2022-11-14T01:29:28;2.78;;;1.88;;
72379;SDS011;60354;47.798;12.472;2022-11-14T01:32:12;3.95;;;2.13;;
72379;SDS011;60354;47.798;12.472;2022-11-14T01:34:56;3.22;;;1.80;;
72379;SDS011;60354;47.798;12.472;2022-11-14T01:37:40;3.10;;;1.95;;
72379;SDS011;60354;47.798;12.472;2022-11-14T01:40:24;3.17;;;2.00;;
72379;SDS011;60354;47.798;12.472;2022-11-14T01:46:03;3.35;;;2.00;;
72379;SDS011;60354;47.798;12.472;2022-11-14T01:52:04;2.78;;;2.03;;
72379;SDS011;60354;47.798;12.472;2022-11-14T01:54:52;3.70;;;2.20;;
72379;SDS011;60354;47.798;12.472;2022-11-14T01:57:42;7.13;;;2.05;;
72379;SDS011;60354;47.798;12.472;2022-11-14T02:00:28;5.43;;;2.30;;
72379;SDS011;60354;47.798;12.472;2022-11-14T02:03:13;5.85;;;2.72;;
72379;SDS011;60354;47.798;12.472;2022-11-14T02:05:58;2.97;;;2.28;;
72379;SDS011;60354;47.798;12.472;2022-11-14T02:08:44;3.40;;;2.25;;
72379;SDS011;60354;47.798;12.472;2022-11-14T02:11:29;3.08;;;2.20;;
72379;SDS011;60354;47.798;12.472;2022-11-14T02:14:16;3.05;;;2.00;;
72379;SDS011;60354;47.798;12.472;2022-11-14T02:17:00;2.70;;;2.03;;
72379;SDS011;60354;47.798;12.472;2022-11-14T02:19:48;3.20;;;1.98;;
72379;SDS011;60354;47.798;12.472;2022-11-14T02:22:34;3.92;;;2.20;;
72379;SDS011;60354;47.798;12.472;2022-11-14T02:25:18;4.20;;;2.47;;
72379;SDS011;60354;47.798;12.472;2022-11-14T02:28:03;3.25;;;2.13;;
72379;SDS011;60354;47.798;12.472;2022-11-14T02:30:50;2.83;;;1.92;;
72379;SDS011;60354;47.798;12.472;2022-11-14T02:33:33;3.70;;;2.10;;
72379;SDS011;60354;47.798;12.472;2022-11-14T02:36:18;3.00;;;1.98;;
72379;SDS011;60354;47.798;12.472;2022-11-14T02:39:01;3.08;;;2.17;;
72379;SDS011;60354;47.798;12.472;2022-11-14T02:41:45;5.35;;;2.25;;
72379;SDS011;60354;47.798;12.472;2022-11-14T02:44:29;3.30;;;2.20;;
72379;SDS011;60354;47.798;12.472;2022-11-14T02:47:13;4.40;;;2.17;;
72379;SDS011;60354;47.798;12.472;2022-11-14T02:49:57;2.58;;;1.98;;
72379;SDS011;60354;47.798;12.472;2022-11-14T02:52:41;2.90;;;2.10;;
72379;SDS011;60354;47.798;12.472;2022-11-14T02:55:25;5.20;;;2.10;;
72379;SDS011;60354;47.798;12.472;2022-11-14T02:58:09;3.03;;;2.00;;
72379;SDS011;60354;47.798;12.472;2022-11-14T03:00:53;3.72;;;1.95;;
72379;SDS011;60354;47.798;12.472;2022-11-14T03:03:37;3.42;;;2.00;;
72379;SDS011;60354;47.798;12.472;2022-11-14T03:06:21;2.83;;;1.80;;
72379;SDS011;60354;47.798;12.472;2022-11-14T03:09:05;2.72;;;1.70;;
72379;SDS011;60354;47.798;12.472;2022-11-14T03:11:49;2.78;;;1.75;;
72379;SDS011;60354;47.798;12.472;2022-11-14T03:14:33;2.17;;;1.60;;
72379;SDS011;60354;47.798;12.472;2022-11-14T03:17:17;2.20;;;1.60;;
72379;SDS011;60354;47.798;12.472;2022-11-14T03:20:01;3.10;;;1.60;;
72379;SDS011;60354;47.798;12.472;2022-11-14T03:22:45;3.75;;;1.70;;
72379;SDS011;60354;47.798;12.472;2022-11-14T03:25:29;3.55;;;1.40;;
72379;SDS011;60354;47.798;12.472;2022-11-14T03:28:16;3.67;;;1.63;;
72379;SDS011;60354;47.798;12.472;2022-11-14T03:31:00;1.50;;;1.27;;
72379;SDS011;60354;47.798;12.472;2022-11-14T03:33:45;1.80;;;1.30;;
72379;SDS011;60354;47.798;12.472;2022-11-14T03:36:29;2.13;;;1.30;;
72379;SDS011;60354;47.798;12.472;2022-11-14T03:41:56;1.60;;;1.20;;
72379;SDS011;60354;47.798;12.472;2022-11-14T03:44:40;1.80;;;1.30;;
72379;SDS011;60354;47.798;12.472;2022-11-14T03:47:24;1.98;;;1.10;;
72379;SDS011;60354;47.798;12.472;2022-11-14T03:52:52;1.90;;;1.05;;
72379;SDS011;60354;47.798;12.472;2022-11-14T03:55:36;1.63;;;1.20;;
72379;SDS011;60354;47.798;12.472;2022-11-14T03:58:21;1.30;;;1.10;;
72379;SDS011;60354;47.798;12.472;2022-11-14T04:01:05;2.97;;;1.08;;
72379;SDS011;60354;47.798;12.472;2022-11-14T04:03:50;1.08;;;0.93;;
72379;SDS011;60354;47.798;12.472;2022-11-14T04:06:34;0.90;;;0.80;;
72379;SDS011;60354;47.798;12.472;2022-11-14T04:09:18;1.80;;;0.63;;
72379;SDS011;60354;47.798;12.472;2022-11-14T04:12:02;0.85;;;0.80;;
72379;SDS011;60354;47.798;12.472;2022-11-14T04:14:45;2.03;;;0.90;;
72379;SDS011;60354;47.798;12.472;2022-11-14T04:17:29;0.95;;;0.85;;
72379;SDS011;60354;47.798;12.472;2022-11-14T04:20:14;0.90;;;0.80;;
72379;SDS011;60354;47.798;12.472;2022-11-14T04:22:58;0.80;;;0.70;;
72379;SDS011;60354;47.798;12.472;2022-11-14T04:25:42;0.88;;;0.70;;
72379;SDS011;60354;47.798;12.472;2022-11-14T04:28:27;0.93;;;0.75;;
72379;SDS011;60354;47.798;12.472;2022-11-14T04:31:11;1.10;;;0.90;;
72379;SDS011;60354;47.798;12.472;2022-11-14T04:36:39;1.02;;;0.90;;
72379;SDS011;60354;47.798;12.472;2022-11-14T04:42:07;0.88;;;0.70;;
72379;SDS011;60354;47.798;12.472;2022-11-14T04:44:51;0.82;;;0.77;;
72379;SDS011;60354;47.798;12.472;2022-11-14T04:47:35;0.88;;;0.70;;
72379;SDS011;60354;47.798;12.472;2022-11-14T04:50:19;1.95;;;1.48;;
72379;SDS011;60354;47.798;12.472;2022-11-14T04:53:04;5.70;;;4.40;;
72379;SDS011;60354;47.798;12.472;2022-11-14T04:55:48;3.10;;;2.50;;
72379;SDS011;60354;47.798;12.472;2022-11-14T04:58:32;2.35;;;1.85;;
72379;SDS011;60354;47.798;12.472;2022-11-14T05:01:15;2.08;;;1.50;;
72379;SDS011;60354;47.798;12.472;2022-11-14T05:03:59;2.53;;;2.10;;
72379;SDS011;60354;47.798;12.472;2022-11-14T05:09:27;1.70;;;1.20;;
72379;SDS011;60354;47.798;12.472;2022-11-14T05:12:11;1.00;;;0.90;;
72379;SDS011;60354;47.798;12.472;2022-11-14T05:14:55;1.50;;;1.10;;
72379;SDS011;60354;47.798;12.472;2022-11-14T05:20:23;1.65;;;1.10;;
72379;SDS011;60354;47.798;12.472;2022-11-14T05:23:26;1.95;;;1.20;;
72379;SDS011;60354;47.798;12.472;2022-11-14T05:26:13;2.45;;;1.30;;
72379;SDS011;60354;47.798;12.472;2022-11-14T05:28:58;4.95;;;2.20;;
72379;SDS011;60354;47.798;12.472;2022-11-14T05:31:42;5.32;;;2.30;;
72379;SDS011;60354;47.798;12.472;2022-11-14T05:34:27;6.20;;;2.42;;
72379;SDS011;60354;47.798;12.472;2022-11-14T05:37:11;4.55;;;2.00;;
72379;SDS011;60354;47.798;12.472;2022-11-14T05:39:54;2.08;;;1.17;;
72379;SDS011;60354;47.798;12.472;2022-11-14T05:42:38;1.15;;;0.85;;
72379;SDS011;60354;47.798;12.472;2022-11-14T05:45:22;1.35;;;0.80;;
72379;SDS011;60354;47.798;12.472;2022-11-14T05:50:57;2.58;;;1.20;;
72379;SDS011;60354;47.798;12.472;2022-11-14T05:53:43;4.97;;;1.73;;
72379;SDS011;60354;47.798;12.472;2022-11-14T05:56:27;4.80;;;1.70;;
72379;SDS011;60354;47.798;12.472;2022-11-14T05:59:11;2.08;;;1.23;;
72379;SDS011;60354;47.798;12.472;2022-11-14T06:04:42;1.35;;;1.00;;
72379;SDS011;60354;47.798;12.472;2022-11-14T06:07:26;1.30;;;1.00;;
72379;SDS011;60354;47.798;12.472;2022-11-14T06:10:10;2.30;;;1.50;;
72379;SDS011;60354;47.798;12.472;2022-11-14T06:12:54;2.30;;;1.52;;
72379;SDS011;60354;47.798;12.472;2022-11-14T06:15:38;2.20;;;1.50;;
72379;SDS011;60354;47.798;12.472;2022-11-14T06:21:11;4.75;;;1.48;;
72379;SDS011;60354;47.798;12.472;2022-11-14T06:23:55;6.07;;;2.88;;
72379;SDS011;60354;47.798;12.472;2022-11-14T06:29:23;2.97;;;1.88;;
72379;SDS011;60354;47.798;12.472;2022-11-14T06:32:07;3.25;;;1.73;;
72379;SDS011;60354;47.798;12.472;2022-11-14T06:34:51;6.70;;;2.33;;
72379;SDS011;60354;47.798;12.472;2022-11-14T06:37:35;2.35;;;1.42;;
72379;SDS011;60354;47.798;12.472;2022-11-14T06:40:23;1.95;;;1.33;;
72379;SDS011;60354;47.798;12.472;2022-11-14T06:43:07;1.65;;;1.17;;
72379;SDS011;60354;47.798;12.472;2022-11-14T06:45:54;2.00;;;1.40;;
72379;SDS011;60354;47.798;12.472;2022-11-14T06:48:38;4.07;;;2.35;;
72379;SDS011;60354;47.798;12.472;2022-11-14T06:51:23;2.53;;;1.80;;
72379;SDS011;60354;47.798;12.472;2022-11-14T06:56:54;2.92;;;1.40;;
72379;SDS011;60354;47.798;12.472;2022-11-14T06:59:38;2.20;;;1.27;;
72379;SDS011;60354;47.798;12.472;2022-11-14T07:02:22;2.08;;;1.35;;
72379;SDS011;60354;47.798;12.472;2022-11-14T07:05:06;1.90;;;1.23;;
72379;SDS011;60354;47.798;12.472;2022-11-14T07:10:34;1.80;;;1.50;;
72379;SDS011;60354;47.798;12.472;2022-11-14T07:13:17;3.30;;;1.40;;
72379;SDS011;60354;47.798;12.472;2022-11-14T07:18:46;1.92;;;1.38;;
72379;SDS011;60354;47.798;12.472;2022-11-14T07:21:30;2.30;;;1.63;;
72379;SDS011;60354;47.798;12.472;2022-11-14T07:24:16;2.17;;;1.58;;
72379;SDS011;60354;47.798;12.472;2022-11-14T07:27:01;3.45;;;1.70;;
72379;SDS011;60354;47.798;12.472;2022-11-14T07:29:45;2.72;;;1.48;;
72379;SDS011;60354;47.798;12.472;2022-11-14T07:32:29;1.65;;;1.33;;
72379;SDS011;60354;47.798;12.472;2022-11-14T07:35:16;2.30;;;1.73;;
72379;SDS011;60354;47.798;12.472;2022-11-14T07:38:01;2.13;;;1.40;;
72379;SDS011;60354;47.798;12.472;2022-11-14T07:40:53;1.50;;;1.30;;
72379;SDS011;60354;47.798;12.472;2022-11-14T07:43:44;1.60;;;1.10;;
72379;SDS011;60354;47.798;12.472;2022-11-14T07:46:28;1.70;;;1.10;;
72379;SDS011;60354;47.798;12.472;2022-11-14T07:49:12;2.75;;;1.20;;
72379;SDS011;60354;47.798;12.472;2022-11-14T07:51:56;4.80;;;1.48;;
72379;SDS011;60354;47.798;12.472;2022-11-14T07:57:24;2.00;;;1.48;;
72379;SDS011;60354;47.798;12.472;2022-11-14T08:00:08;1.98;;;1.30;;
72379;SDS011;60354;47.798;12.472;2022-11-14T08:02:53;3.65;;;1.40;;
72379;SDS011;60354;47.798;12.472;2022-11-14T08:05:38;2.00;;;1.10;;
72379;SDS011;60354;47.798;12.472;2022-11-14T08:11:05;2.50;;;1.40;;
72379;SDS011;60354;47.798;12.472;2022-11-14T08:13:49;2.55;;;1.40;;
72379;SDS011;60354;47.798;12.472;2022-11-14T08:16:33;3.60;;;1.45;;
72379;SDS011;60354;47.798;12.472;2022-11-14T08:19:17;2.03;;;1.25;;
72379;SDS011;60354;47.798;12.472;2022-11-14T08:22:01;4.40;;;2.40;;
72379;SDS011;60354;47.798;12.472;2022-11-14T08:24:45;3.75;;;2.20;;
72379;SDS011;60354;47.798;12.472;2022-11-14T08:27:29;3.40;;;1.80;;
72379;SDS011;60354;47.798;12.472;2022-11-14T08:30:13;1.70;;;1.08;;
72379;SDS011;60354;47.798;12.472;2022-11-14T08:33:05;1.42;;;1.00;;
72379;SDS011;60354;47.798;12.472;2022-11-14T08:35:49;5.03;;;2.00;;
72379;SDS011;60354;47.798;12.472;2022-11-14T08:38:33;3.25;;;1.92;;
72379;SDS011;60354;47.798;12.472;2022-11-14T08:41:17;3.75;;;1.50;;
72379;SDS011;60354;47.798;12.472;2022-11-14T08:44:01;2.00;;;1.30;;
72379;SDS011;60354;47.798;12.472;2022-11-14T08:46:45;1.67;;;1.20;;
72379;SDS011;60354;47.798;12.472;2022-11-14T08:49:29;6.60;;;3.50;;
72379;SDS011;60354;47.798;12.472;2022-11-14T08:54:57;1.60;;;1.00;;
72379;SDS011;60354;47.798;12.472;2022-11-14T09:00:25;2.20;;;1.30;;
72379;SDS011;60354;47.798;12.472;2022-11-14T09:03:10;3.05;;;1.33;;
72379;SDS011;60354;47.798;12.472;2022-11-14T09:05:56;4.85;;;1.40;;
72379;SDS011;60354;47.798;12.472;2022-11-14T09:08:40;1.52;;;1.00;;
72379;SDS011;60354;47.798;12.472;2022-11-14T09:11:24;2.00;;;0.85;;
72379;SDS011;60354;47.798;12.472;2022-11-14T09:14:08;1.42;;;0.80;;
72379;SDS011;60354;47.798;12.472;2022-11-14T09:16:52;1.20;;;0.80;;
72379;SDS011;60354;47.798;12.472;2022-11-14T09:19:36;1.38;;;0.73;;
72379;SDS011;60354;47.798;12.472;2022-11-14T09:22:21;1.23;;;0.88;;
72379;SDS011;60354;47.798;12.472;2022-11-14T09:25:06;1.33;;;0.80;;
72379;SDS011;60354;47.798;12.472;2022-11-14T09:27:51;1.88;;;0.90;;
72379;SDS011;60354;47.798;12.472;2022-11-14T09:30:36;1.80;;;0.90;;
72379;SDS011;60354;47.798;12.472;2022-11-14T09:33:20;0.70;;;0.50;;
72379;SDS011;60354;47.798;12.472;2022-11-14T09:36:05;0.52;;;0.40;;
72379;SDS011;60354;47.798;12.472;2022-11-14T09:38:51;0.63;;;0.63;;
72379;SDS011;60354;47.798;12.472;2022-11-14T09:41:43;0.95;;;0.70;;
72379;SDS011;60354;47.798;12.472;2022-11-14T09:47:43;2.78;;;0.93;;
72379;SDS011;60354;47.798;12.472;2022-11-14T09:50:33;0.75;;;0.75;;
72379;SDS011;60354;47.798;12.472;2022-11-14T09:56:24;1.20;;;0.80;;
72379;SDS011;60354;47.798;12.472;2022-11-14T09:59:12;3.78;;;0.90;;
72379;SDS011;60354;47.798;12.472;2022-11-14T10:02:03;1.95;;;0.95;;
72379;SDS011;60354;47.798;12.472;2022-11-14T10:08:12;1.02;;;0.63;;
72379;SDS011;60354;47.798;12.472;2022-11-14T10:11:13;2.03;;;0.70;;
72379;SDS011;60354;47.798;12.472;2022-11-14T10:29:14;1.02;;;0.70;;
72379;SDS011;60354;47.798;12.472;2022-11-14T10:32:13;2.60;;;0.98;;
72379;SDS011;60354;47.798;12.472;2022-11-14T10:38:01;1.55;;;1.27;;
72379;SDS011;60354;47.798;12.472;2022-11-14T10:40:53;10.63;;;4.68;;
72379;SDS011;60354;47.798;12.472;2022-11-14T10:43:45;0.98;;;0.80;;
72379;SDS011;60354;47.798;12.472;2022-11-14T10:46:37;0.60;;;0.60;;
72379;SDS011;60354;47.798;12.472;2022-11-14T10:49:24;0.77;;;0.60;;
72379;SDS011;60354;47.798;12.472;2022-11-14T10:52:16;0.70;;;0.70;;
72379;SDS011;60354;47.798;12.472;2022-11-14T10:55:08;0.60;;;0.60;;
72379;SDS011;60354;47.798;12.472;2022-11-14T10:57:57;0.50;;;0.50;;
72379;SDS011;60354;47.798;12.472;2022-11-14T11:00:41;0.82;;;0.70;;
72379;SDS011;60354;47.798;12.472;2022-11-14T11:03:39;3.70;;;0.60;;
72379;SDS011;60354;47.798;12.472;2022-11-14T11:06:25;2.55;;;0.90;;
72379;SDS011;60354;47.798;12.472;2022-11-14T11:09:17;2.35;;;0.80;;
72379;SDS011;60354;47.798;12.472;2022-11-14T11:12:24;1.15;;;0.90;;
72379;SDS011;60354;47.798;12.472;2022-11-14T11:15:24;3.13;;;1.15;;
72379;SDS011;60354;47.798;12.472;2022-11-14T11:21:13;1.73;;;1.13;;
72379;SDS011;60354;47.798;12.472;2022-11-14T11:23:59;1.52;;;0.82;;
72379;SDS011;60354;47.798;12.472;2022-11-14T11:26:42;1.83;;;0.50;;
72379;SDS011;60354;47.798;12.472;2022-11-14T11:29:26;0.77;;;0.68;;
72379;SDS011;60354;47.798;12.472;2022-11-14T11:32:11;2.08;;;0.80;;
72379;SDS011;60354;47.798;12.472;2022-11-14T11:35:10;2.47;;;0.77;;
72379;SDS011;60354;47.798;12.472;2022-11-14T11:37:58;1.25;;;0.65;;
72379;SDS011;60354;47.798;12.472;2022-11-14T11:40:46;1.17;;;0.90;;
72379;SDS011;60354;47.798;12.472;2022-11-14T11:43:41;1.75;;;0.50;;
72379;SDS011;60354;47.798;12.472;2022-11-14T12:00:51;0.68;;;0.50;;
72379;SDS011;60354;47.798;12.472;2022-11-14T12:03:45;1.25;;;0.75;;
72379;SDS011;60354;47.798;12.472;2022-11-14T12:06:34;1.08;;;0.70;;
72379;SDS011;60354;47.798;12.472;2022-11-14T12:09:26;2.03;;;0.90;;
72379;SDS011;60354;47.798;12.472;2022-11-14T12:12:19;3.70;;;1.00;;
72379;SDS011;60354;47.798;12.472;2022-11-14T12:21:48;2.38;;;0.90;;
72379;SDS011;60354;47.798;12.472;2022-11-14T12:31:48;1.55;;;0.90;;
72379;SDS011;60354;47.798;12.472;2022-11-14T12:34:42;2.13;;;0.90;;
72379;SDS011;60354;47.798;12.472;2022-11-14T12:37:35;1.45;;;0.70;;
72379;SDS011;60354;47.798;12.472;2022-11-14T12:43:30;1.25;;;0.80;;
72379;SDS011;60354;47.798;12.472;2022-11-14T12:46:17;1.95;;;1.00;;
72379;SDS011;60354;47.798;12.472;2022-11-14T12:49:01;3.53;;;1.00;;
72379;SDS011;60354;47.798;12.472;2022-11-14T13:04:15;2.47;;;0.68;;
72379;SDS011;60354;47.798;12.472;2022-11-14T13:07:44;4.63;;;0.80;;
72379;SDS011;60354;47.798;12.472;2022-11-14T13:10:49;1.33;;;0.80;;
72379;SDS011;60354;47.798;12.472;2022-11-14T13:13:33;1.20;;;0.70;;
72379;SDS011;60354;47.798;12.472;2022-11-14T13:28:54;7.47;;;1.42;;
72379;SDS011;60354;47.798;12.472;2022-11-14T13:31:48;4.63;;;1.40;;
72379;SDS011;60354;47.798;12.472;2022-11-14T13:34:44;3.65;;;1.70;;
72379;SDS011;60354;47.798;12.472;2022-11-14T13:37:39;4.78;;;1.90;;
72379;SDS011;60354;47.798;12.472;2022-11-14T13:47:24;4.00;;;2.20;;
72379;SDS011;60354;47.798;12.472;2022-11-14T13:50:13;3.58;;;1.50;;
72379;SDS011;60354;47.798;12.472;2022-11-14T13:52:59;3.28;;;1.60;;
72379;SDS011;60354;47.798;12.472;2022-11-14T14:05:22;2.25;;;1.40;;
72379;SDS011;60354;47.798;12.472;2022-11-14T14:20:32;1.70;;;1.05;;
72379;SDS011;60354;47.798;12.472;2022-11-14T14:23:48;2.30;;;1.10;;
72379;SDS011;60354;47.798;12.472;2022-11-14T14:35:52;4.28;;;3.10;;
72379;SDS011;60354;47.798;12.472;2022-11-14T14:38:37;4.63;;;3.25;;
72379;SDS011;60354;47.798;12.472;2022-11-14T14:41:21;4.78;;;3.38;;
72379;SDS011;60354;47.798;12.472;2022-11-14T14:44:10;4.50;;;3.40;;
72379;SDS011;60354;47.798;12.472;2022-11-14T14:47:24;5.60;;;3.50;;
72379;SDS011;60354;47.798;12.472;2022-11-14T14:50:38;5.40;;;3.60;;
72379;SDS011;60354;47.798;12.472;2022-11-14T14:53:27;6.68;;;3.60;;
72379;SDS011;60354;47.798;12.472;2022-11-14T14:56:17;5.85;;;3.90;;
72379;SDS011;60354;47.798;12.472;2022-11-14T14:59:16;4.70;;;3.38;;
72379;SDS011;60354;47.798;12.472;2022-11-14T15:02:11;5.28;;;3.45;;
72379;SDS011;60354;47.798;12.472;2022-11-14T15:04:58;6.82;;;3.38;;
72379;SDS011;60354;47.798;12.472;2022-11-14T15:07:43;4.88;;;3.60;;
72379;SDS011;60354;47.798;12.472;2022-11-14T15:10:29;4.70;;;3.40;;
72379;SDS011;60354;47.798;12.472;2022-11-14T15:13:14;4.82;;;3.30;;
72379;SDS011;60354;47.798;12.472;2022-11-14T15:16:01;4.35;;;2.90;;
72379;SDS011;60354;47.798;12.472;2022-11-14T15:18:46;4.65;;;3.38;;
72379;SDS011;60354;47.798;12.472;2022-11-14T15:21:32;5.15;;;3.15;;
72379;SDS011;60354;47.798;12.472;2022-11-14T15:24:20;5.88;;;3.60;;
72379;SDS011;60354;47.798;12.472;2022-11-14T15:27:42;7.47;;;3.50;;
72379;SDS011;60354;47.798;12.472;2022-11-14T15:30:21;6.35;;;3.10;;
72379;SDS011;60354;47.798;12.472;2022-11-14T15:40:20;4.22;;;2.90;;
72379;SDS011;60354;47.798;12.472;2022-11-14T15:46:37;6.00;;;3.13;;
72379;SDS011;60354;47.798;12.472;2022-11-14T15:49:24;5.90;;;3.50;;
72379;SDS011;60354;47.798;12.472;2022-11-14T15:52:16;8.05;;;4.20;;
72379;SDS011;60354;47.798;12.472;2022-11-14T15:55:14;9.60;;;4.43;;
72379;SDS011;60354;47.798;12.472;2022-11-14T15:58:03;16.98;;;7.82;;
72379;SDS011;60354;47.798;12.472;2022-11-14T16:00:52;10.75;;;5.60;;
72379;SDS011;60354;47.798;12.472;2022-11-14T16:03:37;7.35;;;4.82;;
72379;SDS011;60354;47.798;12.472;2022-11-14T16:06:21;6.78;;;4.50;;
72379;SDS011;60354;47.798;12.472;2022-11-14T16:09:05;7.20;;;4.32;;
72379;SDS011;60354;47.798;12.472;2022-11-14T16:11:58;8.48;;;4.65;;
72379;SDS011;60354;47.798;12.472;2022-11-14T16:14:42;7.72;;;4.70;;
72379;SDS011;60354;47.798;12.472;2022-11-14T16:17:27;7.60;;;4.35;;
72379;SDS011;60354;47.798;12.472;2022-11-14T16:20:20;7.22;;;5.03;;
72379;SDS011;60354;47.798;12.472;2022-11-14T16:23:08;8.95;;;4.85;;
72379;SDS011;60354;47.798;12.472;2022-11-14T16:25:54;6.35;;;4.43;;
72379;SDS011;60354;47.798;12.472;2022-11-14T16:28:38;7.20;;;3.50;;
72379;SDS011;60354;47.798;12.472;2022-11-14T16:31:22;8.48;;;4.63;;
72379;SDS011;60354;47.798;12.472;2022-11-14T16:34:08;8.90;;;5.05;;
72379;SDS011;60354;47.798;12.472;2022-11-14T16:36:59;9.07;;;5.40;;
72379;SDS011;60354;47.798;12.472;2022-11-14T16:39:44;6.25;;;4.50;;
72379;SDS011;60354;47.798;12.472;2022-11-14T16:42:28;12.73;;;5.97;;
72379;SDS011;60354;47.798;12.472;2022-11-14T16:45:12;14.45;;;7.50;;
72379;SDS011;60354;47.798;12.472;2022-11-14T16:47:56;8.85;;;6.20;;
72379;SDS011;60354;47.798;12.472;2022-11-14T16:53:27;6.03;;;3.88;;
72379;SDS011;60354;47.798;12.472;2022-11-14T16:56:12;5.68;;;3.60;;
72379;SDS011;60354;47.798;12.472;2022-11-14T16:58:56;6.00;;;4.28;;
72379;SDS011;60354;47.798;12.472;2022-11-14T17:01:40;9.57;;;5.45;;
72379;SDS011;60354;47.798;12.472;2022-11-14T17:04:24;13.45;;;6.70;;
72379;SDS011;60354;47.798;12.472;2022-11-14T17:12:36;15.40;;;8.60;;
72379;SDS011;60354;47.798;12.472;2022-11-14T17:18:04;12.02;;;6.75;;
72379;SDS011;60354;47.798;12.472;2022-11-14T17:20:48;14.27;;;7.03;;
72379;SDS011;60354;47.798;12.472;2022-11-14T17:23:35;15.52;;;9.02;;
72379;SDS011;60354;47.798;12.472;2022-11-14T17:26:19;15.50;;;9.43;;
72379;SDS011;60354;47.798;12.472;2022-11-14T17:29:03;15.60;;;8.40;;
72379;SDS011;60354;47.798;12.472;2022-11-14T17:31:47;17.30;;;9.45;;
72379;SDS011;60354;47.798;12.472;2022-11-14T17:34:32;14.45;;;9.23;;
72379;SDS011;60354;47.798;12.472;2022-11-14T17:37:16;13.80;;;9.27;;
72379;SDS011;60354;47.798;12.472;2022-11-14T17:40:00;17.27;;;10.70;;
72379;SDS011;60354;47.798;12.472;2022-11-14T17:42:44;16.73;;;10.13;;
72379;SDS011;60354;47.798;12.472;2022-11-14T17:45:28;15.88;;;9.38;;
72379;SDS011;60354;47.798;12.472;2022-11-14T17:48:12;13.52;;;7.25;;
72379;SDS011;60354;47.798;12.472;2022-11-14T17:51:01;12.75;;;6.97;;
72379;SDS011;60354;47.798;12.472;2022-11-14T17:53:47;11.38;;;6.57;;
72379;SDS011;60354;47.798;12.472;2022-11-14T17:56:34;12.05;;;7.03;;
72379;SDS011;60354;47.798;12.472;2022-11-14T17:59:19;13.48;;;6.97;;
72379;SDS011;60354;47.798;12.472;2022-11-14T18:02:04;10.63;;;6.80;;
72379;SDS011;60354;47.798;12.472;2022-11-14T18:04:48;10.10;;;6.85;;
72379;SDS011;60354;47.798;12.472;2022-11-14T18:10:16;11.43;;;6.10;;
72379;SDS011;60354;47.798;12.472;2022-11-14T18:13:00;9.43;;;5.85;;
72379;SDS011;60354;47.798;12.472;2022-11-14T18:15:47;9.75;;;5.95;;
72379;SDS011;60354;47.798;12.472;2022-11-14T18:18:31;9.55;;;5.50;;
72379;SDS011;60354;47.798;12.472;2022-11-14T18:21:17;8.07;;;5.60;;
72379;SDS011;60354;47.798;12.472;2022-11-14T18:24:03;9.13;;;5.20;;
72379;SDS011;60354;47.798;12.472;2022-11-14T18:26:47;8.45;;;5.28;;
72379;SDS011;60354;47.798;12.472;2022-11-14T18:29:32;25.50;;;13.70;;
72379;SDS011;60354;47.798;12.472;2022-11-14T18:35:00;41.47;;;19.33;;
72379;SDS011;60354;47.798;12.472;2022-11-14T18:37:44;30.58;;;15.43;;
72379;SDS011;60354;47.798;12.472;2022-11-14T18:40:32;35.28;;;17.10;;
72379;SDS011;60354;47.798;12.472;2022-11-14T18:43:19;24.17;;;12.32;;
72379;SDS011;60354;47.798;12.472;2022-11-14T18:46:10;15.68;;;7.90;;
72379;SDS011;60354;47.798;12.472;2022-11-14T18:48:55;14.98;;;8.63;;
72379;SDS011;60354;47.798;12.472;2022-11-14T18:51:42;20.52;;;11.10;;
72379;SDS011;60354;47.798;12.472;2022-11-14T18:54:26;19.27;;;9.82;;
72379;SDS011;60354;47.798;12.472;2022-11-14T18:57:10;15.48;;;8.68;;
72379;SDS011;60354;47.798;12.472;2022-11-14T18:59:54;15.30;;;7.82;;
72379;SDS011;60354;47.798;12.472;2022-11-14T19:02:38;12.05;;;6.65;;
72379;SDS011;60354;47.798;12.472;2022-11-14T19:05:22;9.63;;;5.70;;
72379;SDS011;60354;47.798;12.472;2022-11-14T19:08:06;9.25;;;5.43;;
72379;SDS011;60354;47.798;12.472;2022-11-14T19:10:50;8.00;;;4.65;;
72379;SDS011;60354;47.798;12.472;2022-11-14T19:13:34;9.07;;;5.00;;
72379;SDS011;60354;47.798;12.472;2022-11-14T19:16:18;7.43;;;4.65;;
72379;SDS011;60354;47.798;12.472;2022-11-14T19:19:02;8.05;;;4.50;;
72379;SDS011;60354;47.798;12.472;2022-11-14T19:21:47;5.90;;;4.20;;
72379;SDS011;60354;47.798;12.472;2022-11-14T19:24:33;6.45;;;3.85;;
72379;SDS011;60354;47.798;12.472;2022-11-14T19:27:17;8.18;;;3.65;;
72379;SDS011;60354;47.798;12.472;2022-11-14T19:30:01;5.93;;;3.83;;
72379;SDS011;60354;47.798;12.472;2022-11-14T19:32:45;6.35;;;3.90;;
72379;SDS011;60354;47.798;12.472;2022-11-14T19:35:32;6.03;;;3.70;;
72379;SDS011;60354;47.798;12.472;2022-11-14T19:38:16;6.57;;;4.40;;
72379;SDS011;60354;47.798;12.472;2022-11-14T19:41:13;107.75;;;43.55;;
72379;SDS011;60354;47.798;12.472;2022-11-14T19:44:00;106.47;;;42.00;;
72379;SDS011;60354;47.798;12.472;2022-11-14T19:46:45;42.38;;;18.45;;
72379;SDS011;60354;47.798;12.472;2022-11-14T19:49:29;13.68;;;7.30;;
72379;SDS011;60354;47.798;12.472;2022-11-14T19:52:13;16.98;;;8.75;;
72379;SDS011;60354;47.798;12.472;2022-11-14T19:54:57;22.45;;;12.60;;
72379;SDS011;60354;47.798;12.472;2022-11-14T20:00:25;16.38;;;9.60;;
72379;SDS011;60354;47.798;12.472;2022-11-14T20:03:12;11.43;;;6.40;;
72379;SDS011;60354;47.798;12.472;2022-11-14T20:05:56;15.27;;;6.40;;
72379;SDS011;60354;47.798;12.472;2022-11-14T20:08:40;8.85;;;5.25;;
72379;SDS011;60354;47.798;12.472;2022-11-14T20:11:25;10.15;;;5.93;;
72379;SDS011;60354;47.798;12.472;2022-11-14T20:14:11;7.18;;;4.13;;